Time;durP1;ratioP1;P1;durP2;ratioP2;P2;SDS_P1;SDS_P2;PMS_P1;PMS_P2;Temp;Humidity;BMP_temperature;BMP_pressure;BME280_temperature;BME280_humidity;BME280_pressure;Samples;Min_cycle;Max_cycle;Signal;HPM_P1;HPM_P2
2022/08/27 00:02:04;;;;;;;13.30;10.90;;;;;;;19.85;89.89;98478.78;4998917;28;20225;-59
2022/08/27 00:04:31;;;;;;;13.57;11.33;;;;;;;19.85;91.22;98475.31;4983658;28;20236;-58
2022/08/27 00:06:58;;;;;;;13.47;10.57;;;;;;;19.80;91.65;98473.31;4985003;28;20440;-59
2022/08/27 00:09:25;;;;;;;15.70;11.90;;;;;;;19.76;93.31;98467.63;4984463;28;20670;-59
2022/08/27 00:11:53;;;;;;;14.77;11.70;;;;;;;19.66;94.30;98461.19;4984263;28;20250;-59
2022/08/27 00:14:20;;;;;;;15.70;11.83;;;;;;;19.64;95.54;98464.03;4985099;28;20664;-59
2022/08/27 00:16:46;;;;;;;17.30;12.30;;;;;;;19.60;97.12;98466.31;4984351;28;20661;-59
2022/08/27 00:19:13;;;;;;;19.27;11.90;;;;;;;19.51;98.39;98467.59;4984766;28;20228;-59
2022/08/27 00:21:40;;;;;;;15.30;11.60;;;;;;;19.43;98.50;98458.09;4984477;28;20442;-59
2022/08/27 00:24:07;;;;;;;19.43;11.30;;;;;;;19.36;99.27;98454.66;4978093;28;20233;-58
2022/08/27 00:26:34;;;;;;;19.27;13.23;;;;;;;19.30;100.00;98469.53;4983895;28;20239;-58
2022/08/27 00:29:02;;;;;;;20.00;12.77;;;;;;;19.26;100.00;98465.69;4984929;28;20240;-59
2022/08/27 00:31:51;;;;;;;17.20;12.63;;;;;;;19.24;100.00;98470.38;4982748;28;20318;-59
2022/08/27 00:34:18;;;;;;;19.80;13.23;;;;;;;19.24;100.00;98474.88;4985386;28;20235;-59
2022/08/27 00:36:45;;;;;;;17.30;13.27;;;;;;;19.20;100.00;98482.41;4983938;28;20258;-59
2022/08/27 00:39:12;;;;;;;19.50;12.77;;;;;;;19.15;100.00;98469.00;4984079;28;20236;-59
2022/08/27 00:41:41;;;;;;;22.20;14.03;;;;;;;19.13;100.00;98471.03;4982852;28;20228;-59
2022/08/27 00:44:10;;;;;;;18.00;12.33;;;;;;;19.09;100.00;98467.19;4983957;28;20249;-59
2022/08/27 00:46:41;;;;;;;18.23;12.97;;;;;;;19.10;100.00;98466.16;4983198;28;20229;-59
2022/08/27 00:49:12;;;;;;;17.60;12.67;;;;;;;19.09;100.00;98460.09;4983257;28;20236;-58
2022/08/27 00:51:40;;;;;;;20.17;12.53;;;;;;;19.04;100.00;98457.25;4982439;28;20227;-58
2022/08/27 00:54:08;;;;;;;17.33;12.90;;;;;;;19.02;100.00;98460.13;4979627;28;20231;-58
2022/08/27 00:56:39;;;;;;;16.07;12.67;;;;;;;19.00;100.00;98467.47;4980139;28;20251;-58
2022/08/27 00:59:06;;;;;;;16.17;12.63;;;;;;;18.99;100.00;98468.47;4982369;28;20316;-59
2022/08/27 01:02:17;;;;;;;17.90;13.33;;;;;;;19.04;100.00;98481.06;4981396;28;20317;-58
2022/08/27 01:04:21;;;;;;;17.37;12.83;;;;;;;18.95;100.00;98467.25;4982102;28;20231;-57
2022/08/27 01:06:48;;;;;;;17.80;12.70;;;;;;;18.94;100.00;98472.72;4982648;28;20263;-57
2022/08/27 01:09:17;;;;;;;20.87;13.07;;;;;;;18.94;100.00;98468.25;4982500;28;20232;-57
2022/08/27 01:11:45;;;;;;;17.90;13.93;;;;;;;18.92;100.00;98465.00;4982269;28;20237;-56
2022/08/27 01:14:12;;;;;;;20.97;13.13;;;;;;;18.91;100.00;98467.84;4982944;28;20234;-56
2022/08/27 01:16:46;;;;;;;19.57;13.33;;;;;;;18.94;100.00;98470.91;4982645;28;20703;-57
2022/08/27 01:19:19;;;;;;;17.87;13.40;;;;;;;18.95;100.00;98469.06;4983480;28;20279;-58
2022/08/27 01:21:53;;;;;;;17.53;13.80;;;;;;;18.94;100.00;98465.63;4981855;28;20242;-57
2022/08/27 01:24:36;;;;;;;19.47;14.47;;;;;;;18.98;100.00;98472.16;4981947;28;21164;-57
2022/08/27 01:27:07;;;;;;;18.40;13.77;;;;;;;18.98;100.00;98476.59;4981642;28;20223;-58
2022/08/27 01:29:34;;;;;;;16.60;12.87;;;;;;;18.99;100.00;98472.94;4982342;28;20237;-57
2022/08/27 01:32:08;;;;;;;21.17;13.83;;;;;;;19.02;100.00;98476.00;4982731;28;20232;-57
2022/08/27 01:34:36;;;;;;;15.50;12.87;;;;;;;19.01;100.00;98474.38;4982074;28;20227;-57
2022/08/27 01:37:05;;;;;;;17.23;13.43;;;;;;;19.04;100.00;98470.47;4982554;28;20251;-58
2022/08/27 01:39:33;;;;;;;16.83;13.77;;;;;;;19.03;100.00;98472.31;4982493;28;20688;-57
2022/08/27 01:42:04;;;;;;;17.67;13.20;;;;;;;19.06;100.00;98470.28;4982563;28;20636;-58
2022/08/27 01:44:42;;;;;;;18.23;12.90;;;;;;;19.01;100.00;98466.44;4982308;28;20226;-58
2022/08/27 01:47:08;;;;;;;19.27;14.20;;;;;;;19.01;100.00;98458.50;4982171;28;20225;-58
2022/08/27 01:49:35;;;;;;;17.60;14.03;;;;;;;18.98;100.00;98458.91;4982993;28;20540;-57
2022/08/27 01:52:02;;;;;;;20.97;15.00;;;;;;;18.96;100.00;98460.09;4981956;28;20387;-58
2022/08/27 01:54:30;;;;;;;22.53;14.53;;;;;;;18.95;100.00;98461.13;4982377;28;20235;-58
2022/08/27 01:56:58;;;;;;;19.03;14.07;;;;;;;18.96;100.00;98458.31;4981928;28;20320;-57
2022/08/27 01:59:25;;;;;;;19.23;14.27;;;;;;;18.94;100.00;98451.56;4980864;28;20310;-57
2022/08/27 02:01:54;;;;;;;21.43;13.83;;;;;;;18.94;100.00;98451.56;4982896;28;20235;-58
2022/08/27 02:04:21;;;;;;;16.80;13.50;;;;;;;18.94;100.00;98457.69;4983923;28;20278;-58
2022/08/27 02:06:47;;;;;;;17.30;13.83;;;;;;;18.90;100.00;98448.53;4982416;28;20664;-58
2022/08/27 02:09:15;;;;;;;19.43;14.90;;;;;;;18.82;100.00;98448.78;4982746;28;20249;-58
2022/08/27 02:11:41;;;;;;;19.23;14.47;;;;;;;18.79;100.00;98446.53;4981951;28;20759;-58
2022/08/27 02:14:09;;;;;;;18.10;13.97;;;;;;;18.70;100.00;98454.69;4983514;28;20236;-58
2022/08/27 02:16:36;;;;;;;23.80;15.97;;;;;;;18.60;100.00;98449.03;4982790;28;20277;-57
2022/08/27 02:19:03;;;;;;;20.53;15.97;;;;;;;18.53;100.00;98448.25;4983709;28;20607;-57
2022/08/27 02:21:30;;;;;;;20.20;16.00;;;;;;;18.47;100.00;98438.50;4978934;28;20232;-58
2022/08/27 02:23:56;;;;;;;22.23;16.70;;;;;;;18.36;100.00;98438.09;4982535;28;20329;-57
2022/08/27 02:26:23;;;;;;;21.97;15.63;;;;;;;18.34;100.00;98445.41;4977613;28;20718;-57
2022/08/27 02:28:50;;;;;;;23.90;16.23;;;;;;;18.34;100.00;98441.97;4984321;28;20748;-57
2022/08/27 02:31:18;;;;;;;20.13;16.07;;;;;;;18.26;100.00;98445.63;4986214;28;20281;-58
2022/08/27 02:33:45;;;;;;;24.07;15.93;;;;;;;18.24;100.00;98445.03;4984327;28;20580;-58
2022/08/27 02:36:12;;;;;;;21.47;16.83;;;;;;;18.18;100.00;98436.09;4986507;28;20265;-58
2022/08/27 02:38:39;;;;;;;23.67;17.33;;;;;;;18.16;100.00;98438.13;4986412;28;20281;-57
2022/08/27 02:41:06;;;;;;;23.77;16.63;;;;;;;18.17;100.00;98441.59;4986812;28;20286;-58
2022/08/27 02:43:32;;;;;;;24.90;16.27;;;;;;;18.15;100.00;98436.50;4985588;28;20820;-57
2022/08/27 02:46:00;;;;;;;21.33;15.90;;;;;;;18.12;100.00;98436.94;4987079;28;20701;-58
2022/08/27 02:48:28;;;;;;;24.17;18.13;;;;;;;18.06;100.00;98429.81;4986003;28;20236;-58
2022/08/27 02:50:55;;;;;;;22.57;16.43;;;;;;;18.06;100.00;98433.25;4985649;28;20230;-58
2022/08/27 02:53:22;;;;;;;23.90;17.40;;;;;;;18.03;100.00;98422.31;4985447;28;20316;-58
2022/08/27 02:55:49;;;;;;;21.70;16.13;;;;;;;18.06;100.00;98425.31;4986136;28;20251;-58
2022/08/27 02:58:15;;;;;;;25.17;16.83;;;;;;;17.99;100.00;98428.00;4999630;28;20239;-57
2022/08/27 03:00:42;;;;;;;24.90;17.50;;;;;;;17.98;100.00;98423.69;4983048;28;20265;-58
2022/08/27 03:03:09;;;;;;;22.83;16.50;;;;;;;17.98;100.00;98428.19;4986608;28;20324;-59
2022/08/27 03:05:38;;;;;;;27.50;17.50;;;;;;;17.99;100.00;98429.81;4985688;28;20265;-58
2022/08/27 03:08:05;;;;;;;24.47;17.17;;;;;;;18.03;100.00;98431.03;4985731;28;20334;-57
2022/08/27 03:10:32;;;;;;;23.23;16.83;;;;;;;18.00;100.00;98424.34;4985671;28;20226;-57
2022/08/27 03:12:59;;;;;;;26.10;18.27;;;;;;;17.99;100.00;98425.34;4985702;28;20233;-59
2022/08/27 03:15:25;;;;;;;23.60;17.43;;;;;;;17.97;100.00;98426.56;4985952;28;20939;-58
2022/08/27 03:20:40;;;;;;;25.13;16.80;;;;;;;17.94;100.00;98422.47;4985786;28;20240;-57
2022/08/27 03:23:07;;;;;;;22.10;17.40;;;;;;;17.96;100.00;98424.94;4985994;28;20222;-57
2022/08/27 03:25:34;;;;;;;24.00;17.77;;;;;;;17.92;100.00;98421.88;4985616;28;20622;-57
2022/08/27 03:28:00;;;;;;;24.20;18.53;;;;;;;17.94;100.00;98419.03;4986617;28;20304;-57
2022/08/27 03:30:27;;;;;;;24.73;18.63;;;;;;;17.99;100.00;98425.34;4985871;28;20231;-58
2022/08/27 03:32:54;;;;;;;26.73;18.30;;;;;;;18.02;100.00;98431.25;4985792;28;20273;-58
2022/08/27 03:35:22;;;;;;;24.23;17.50;;;;;;;18.02;100.00;98437.31;4985741;28;20234;-58
2022/08/27 03:37:50;;;;;;;24.27;19.17;;;;;;;18.00;100.00;98436.75;4984494;28;20235;-58
2022/08/27 03:40:17;;;;;;;24.97;17.23;;;;;;;18.08;100.00;98443.63;4985252;28;20245;-58
2022/08/27 03:42:44;;;;;;;25.93;17.50;;;;;;;18.16;100.00;98440.78;4983933;28;20342;-57
2022/08/27 03:45:12;;;;;;;22.00;16.47;;;;;;;18.21;100.00;98438.34;4984466;28;20726;-58
2022/08/27 03:47:39;;;;;;;22.07;17.40;;;;;;;18.20;100.00;98441.16;4983531;28;20311;-57
2022/08/27 03:50:07;;;;;;;28.87;18.83;;;;;;;18.23;100.00;98446.03;4985010;28;20238;-57
2022/08/27 03:52:35;;;;;;;25.03;18.07;;;;;;;18.23;100.00;98436.31;4982529;28;20255;-57
2022/08/27 03:55:04;;;;;;;24.90;17.97;;;;;;;18.33;100.00;98441.16;4984803;28;20223;-58
2022/08/27 03:57:32;;;;;;;24.97;17.97;;;;;;;18.33;100.00;98443.00;4984942;28;20236;-57
2022/08/27 03:59:59;;;;;;;24.80;19.47;;;;;;;18.34;100.00;98442.78;4983163;28;20229;-56
2022/08/27 04:02:26;;;;;;;27.70;19.37;;;;;;;18.36;100.00;98442.59;4983653;28;20224;-57
2022/08/27 04:04:53;;;;;;;25.77;19.00;;;;;;;18.37;100.00;98437.09;4985181;28;20238;-57
2022/08/27 04:07:20;;;;;;;26.20;18.60;;;;;;;18.37;100.00;98434.44;4984267;28;20320;-57
2022/08/27 04:09:47;;;;;;;25.17;17.10;;;;;;;18.39;100.00;98437.69;4984701;28;20325;-58
2022/08/27 04:12:15;;;;;;;27.70;19.73;;;;;;;18.39;100.00;98436.91;4984278;28;20277;-56
2022/08/27 04:14:41;;;;;;;31.60;18.70;;;;;;;18.40;100.00;98438.53;4984027;28;20292;-58
2022/08/27 04:17:08;;;;;;;27.60;20.37;;;;;;;18.46;100.00;98442.97;4985436;28;20242;-56
2022/08/27 04:19:35;;;;;;;27.07;19.77;;;;;;;18.44;100.00;98442.38;4984411;28;20309;-58
2022/08/27 04:22:03;;;;;;;23.97;18.67;;;;;;;18.47;100.00;98443.78;4984842;28;20309;-57
2022/08/27 04:24:31;;;;;;;30.33;20.67;;;;;;;18.47;100.00;98439.31;4984833;28;20232;-58
2022/08/27 04:26:59;;;;;;;24.63;18.37;;;;;;;18.46;100.00;98448.25;4984485;28;20758;-57
2022/08/27 04:29:27;;;;;;;27.53;19.07;;;;;;;18.45;100.00;98451.94;4984352;28;20281;-58
2022/08/27 04:31:54;;;;;;;29.10;19.57;;;;;;;18.47;100.00;98443.78;4984699;28;20249;-58
2022/08/27 04:34:21;;;;;;;26.83;19.37;;;;;;;18.49;100.00;98447.03;4985229;28;20583;-57
2022/08/27 04:36:49;;;;;;;30.47;19.90;;;;;;;18.53;100.00;98443.78;4983672;28;20842;-57
2022/08/27 04:39:16;;;;;;;27.17;19.97;;;;;;;18.52;100.00;98446.63;4984615;28;20706;-58
2022/08/27 04:41:42;;;;;;;23.60;18.77;;;;;;;18.52;100.00;98450.09;4984027;28;20243;-57
2022/08/27 04:44:11;;;;;;;26.77;19.00;;;;;;;18.52;100.00;98455.38;4984782;28;20233;-58
2022/08/27 04:46:40;;;;;;;27.00;18.47;;;;;;;18.55;100.00;98448.84;4984285;28;20225;-58
2022/08/27 04:49:09;;;;;;;26.40;20.33;;;;;;;18.58;100.00;98451.06;4984430;28;20246;-58
2022/08/27 04:51:36;;;;;;;26.13;19.53;;;;;;;18.60;100.00;98443.75;4983114;28;20770;-58
2022/08/27 04:54:05;;;;;;;28.97;19.90;;;;;;;18.61;100.00;98445.38;4983975;28;20234;-58
2022/08/27 04:56:33;;;;;;;28.00;19.10;;;;;;;18.60;100.00;98443.75;4983229;28;20603;-56
2022/08/27 04:59:02;;;;;;;24.17;19.27;;;;;;;18.57;100.00;98450.25;4984265;28;20233;-58
2022/08/27 05:01:49;;;;;;;24.40;19.40;;;;;;;18.58;100.00;98443.94;4981563;28;20291;-58
2022/08/27 05:04:18;;;;;;;27.13;18.90;;;;;;;18.57;100.00;98449.44;4983878;28;20238;-58
2022/08/27 05:06:45;;;;;;;27.27;19.80;;;;;;;18.56;100.00;98450.47;4983878;28;20242;-58
2022/08/27 05:09:13;;;;;;;26.90;20.17;;;;;;;18.57;100.00;98452.09;4984699;28;20608;-57
2022/08/27 05:11:41;;;;;;;28.30;20.27;;;;;;;18.56;100.00;98453.91;4983412;28;20233;-58
2022/08/27 05:14:11;;;;;;;29.47;20.47;;;;;;;18.55;100.00;98456.78;4983962;28;20599;-58
2022/08/27 05:16:38;;;;;;;28.97;19.57;;;;;;;18.55;100.00;98456.78;4983441;28;20330;-59
2022/08/27 05:19:08;;;;;;;26.33;20.03;;;;;;;18.61;100.00;98453.31;4984118;28;20236;-58
2022/08/27 05:21:37;;;;;;;26.10;19.80;;;;;;;18.64;100.00;98452.88;4983023;28;20297;-58
2022/08/27 05:24:06;;;;;;;27.97;20.17;;;;;;;18.65;100.00;98451.88;4983571;28;20230;-58
2022/08/27 05:26:35;;;;;;;35.03;20.90;;;;;;;18.65;100.00;98456.34;4983224;28;20226;-58
2022/08/27 05:29:04;;;;;;;26.40;19.60;;;;;;;18.66;100.00;98450.03;4983314;28;20226;-58
2022/08/27 05:31:30;;;;;;;28.57;19.37;;;;;;;18.66;100.00;98448.22;4983354;28;20220;-57
2022/08/27 05:33:57;;;;;;;25.30;19.17;;;;;;;18.68;100.00;98451.47;4983866;28;20241;-57
2022/08/27 05:36:28;;;;;;;23.50;18.87;;;;;;;18.72;100.00;98447.38;4983592;28;20313;-57
2022/08/27 05:38:56;;;;;;;25.03;19.03;;;;;;;18.72;100.00;98452.66;4983211;28;20246;-58
2022/08/27 05:41:26;;;;;;;24.70;19.10;;;;;;;18.81;100.00;98452.44;4984409;28;20606;-56
2022/08/27 05:43:53;;;;;;;29.87;20.00;;;;;;;18.81;100.00;98457.72;4983276;28;20245;-57
2022/08/27 05:46:22;;;;;;;27.20;18.20;;;;;;;18.87;100.00;98452.41;4983530;28;20222;-57
2022/08/27 05:48:50;;;;;;;25.53;19.07;;;;;;;18.90;100.00;98459.13;4982939;28;20229;-56
2022/08/27 05:51:21;;;;;;;24.37;18.23;;;;;;;18.91;100.00;98454.63;4981740;28;20573;-60
2022/08/27 05:53:49;;;;;;;24.10;18.53;;;;;;;18.99;100.00;98451.78;4982041;28;20274;-57
2022/08/27 05:56:18;;;;;;;23.53;17.47;;;;;;;19.07;100.00;98450.75;4984075;28;20234;-55
2022/08/27 06:01:31;;;;;;;25.13;17.80;;;;;;;19.18;100.00;98456.19;4980088;28;20225;-57
2022/08/27 06:03:58;;;;;;;23.90;17.30;;;;;;;19.27;100.00;98450.63;4985509;28;20238;-57
2022/08/27 06:06:25;;;;;;;21.40;17.37;;;;;;;19.37;100.00;98453.63;4986641;28;20680;-58
2022/08/27 06:08:54;;;;;;;28.93;19.70;;;;;;;19.41;100.00;98457.50;4987364;28;20712;-58
2022/08/27 06:11:22;;;;;;;25.50;18.50;;;;;;;19.44;100.00;98453.59;4987060;28;20673;-57
2022/08/27 06:13:49;;;;;;;21.90;16.77;;;;;;;19.56;100.00;98451.88;4985413;28;20649;-58
2022/08/27 06:16:18;;;;;;;26.77;18.77;;;;;;;19.53;100.00;98452.31;4987484;28;20236;-58
2022/08/27 06:18:47;;;;;;;24.57;19.33;;;;;;;19.61;100.00;98460.00;4986769;28;20628;-58
2022/08/27 06:21:15;;;;;;;25.47;20.03;;;;;;;19.65;100.00;98456.94;4986700;28;20228;-58
2022/08/27 06:23:42;;;;;;;26.50;19.57;;;;;;;19.64;100.00;98463.25;4986484;28;20678;-57
2022/08/27 06:26:12;;;;;;;25.43;18.83;;;;;;;19.67;100.00;98462.81;4987121;28;20324;-58
2022/08/27 06:28:40;;;;;;;26.27;19.67;;;;;;;19.74;100.00;98463.59;4986719;28;20252;-57
2022/08/27 06:31:09;;;;;;;26.47;19.17;;;;;;;19.81;100.00;98459.06;4986363;28;20229;-58
2022/08/27 06:33:37;;;;;;;29.10;21.10;;;;;;;19.85;100.00;98457.59;4985129;28;20323;-57
2022/08/27 06:36:06;;;;;;;26.30;18.80;;;;;;;20.03;100.00;98461.38;4986571;28;20695;-57
2022/08/27 06:38:33;;;;;;;26.27;19.77;;;;;;;20.08;100.00;98466.00;4986244;28;20220;-58
2022/08/27 06:41:00;;;;;;;21.47;17.60;;;;;;;20.17;100.00;98457.56;4986601;28;20240;-57
2022/08/27 06:43:29;;;;;;;21.00;17.07;;;;;;;20.24;100.00;98457.50;4985799;28;20221;-58
2022/08/27 06:45:55;;;;;;;23.07;16.77;;;;;;;20.33;100.00;98460.69;4986084;28;20326;-57
2022/08/27 06:48:22;;;;;;;24.47;18.73;;;;;;;20.43;99.84;98468.16;4987255;28;20339;-58
2022/08/27 06:50:49;;;;;;;22.53;18.20;;;;;;;20.49;98.99;98465.41;4985876;28;20334;-58
2022/08/27 06:53:16;;;;;;;21.37;18.70;;;;;;;20.62;98.38;98469.78;4986226;28;20270;-58
2022/08/27 06:55:44;;;;;;;26.97;20.20;;;;;;;20.65;96.06;98460.56;4985585;28;20224;-57
2022/08/27 06:58:12;;;;;;;27.03;19.37;;;;;;;20.53;95.92;98465.81;4986434;28;20234;-58
2022/08/27 07:00:41;;;;;;;28.90;21.87;;;;;;;20.41;97.17;98471.00;4985084;28;20231;-57
2022/08/27 07:03:08;;;;;;;24.73;19.77;;;;;;;20.47;97.98;98467.47;4983425;28;20242;-58
2022/08/27 07:05:37;;;;;;;25.40;19.33;;;;;;;20.46;98.34;98476.47;4985725;28;20902;-57
2022/08/27 07:08:04;;;;;;;29.73;20.10;;;;;;;20.44;99.57;98477.72;4985909;28;20705;-56
2022/08/27 07:10:32;;;;;;;33.17;21.77;;;;;;;20.54;98.64;98472.72;4985957;28;20259;-57
2022/08/27 07:12:59;;;;;;;29.40;20.23;;;;;;;20.48;98.21;98476.25;4985257;28;20353;-58
2022/08/27 07:15:26;;;;;;;28.20;21.37;;;;;;;20.41;98.16;98476.31;4983586;28;20240;-58
2022/08/27 07:17:54;;;;;;;31.87;23.63;;;;;;;20.33;99.34;98472.09;4984305;28;20271;-58
2022/08/27 07:20:21;;;;;;;29.27;22.60;;;;;;;20.17;99.76;98475.31;4984053;28;20225;-57
2022/08/27 07:22:48;;;;;;;31.23;22.97;;;;;;;20.14;100.00;98476.53;4982711;28;20232;-58
2022/08/27 07:25:19;;;;;;;28.87;22.07;;;;;;;20.09;100.00;98476.41;4976530;28;20243;-57
2022/08/27 07:27:45;;;;;;;33.33;22.87;;;;;;;20.01;100.00;98474.03;4985092;28;20652;-57
2022/08/27 07:30:14;;;;;;;32.23;22.03;;;;;;;20.09;100.00;98476.41;4986189;28;20234;-57
2022/08/27 07:32:41;;;;;;;35.67;24.27;;;;;;;20.14;100.00;98479.19;4983720;28;20235;-56
2022/08/27 07:35:10;;;;;;;35.43;23.83;;;;;;;20.26;100.00;98486.44;4985696;28;20289;-57
2022/08/27 07:37:36;;;;;;;29.87;21.90;;;;;;;20.41;100.00;98488.75;4984863;28;20228;-57
2022/08/27 07:40:05;;;;;;;28.07;21.93;;;;;;;20.57;100.00;98490.03;4985279;28;20229;-57
2022/08/27 07:45:16;;;;;;;28.17;21.17;;;;;;;20.68;99.56;98493.78;4985202;28;20802;-57
2022/08/27 07:47:43;;;;;;;28.33;22.50;;;;;;;20.67;98.02;98498.28;4984532;28;20222;-57
2022/08/27 07:50:11;;;;;;;30.03;21.93;;;;;;;20.81;97.87;98506.13;4986133;28;20240;-58
2022/08/27 07:52:38;;;;;;;29.30;22.10;;;;;;;20.86;97.23;98503.63;4984845;28;20238;-58
2022/08/27 07:55:06;;;;;;;30.17;21.57;;;;;;;20.82;96.54;98494.50;4986084;28;20232;-58
2022/08/27 07:57:33;;;;;;;35.10;22.97;;;;;;;20.84;98.21;98497.75;4984883;28;20233;-59
2022/08/27 07:59:59;;;;;;;27.27;20.40;;;;;;;20.96;98.79;98503.09;4986101;28;20287;-58
2022/08/27 08:02:29;;;;;;;33.27;22.17;;;;;;;20.97;97.73;98502.91;4983690;28;20233;-57
2022/08/27 08:04:56;;;;;;;31.30;22.83;;;;;;;20.96;97.25;98503.09;4982114;28;20232;-58
2022/08/27 08:07:24;;;;;;;30.13;23.00;;;;;;;20.98;98.28;98511.66;4985762;28;20228;-59
2022/08/27 08:09:51;;;;;;;29.77;21.50;;;;;;;21.03;98.01;98504.66;4984868;28;20816;-57
2022/08/27 08:12:18;;;;;;;29.77;23.07;;;;;;;21.05;97.60;98505.25;4985186;28;20226;-59
2022/08/27 08:14:45;;;;;;;33.17;24.80;;;;;;;20.92;97.00;98508.06;4984899;28;20674;-58
2022/08/27 08:17:13;;;;;;;30.87;22.40;;;;;;;21.04;97.83;98511.59;4983925;28;20228;-58
2022/08/27 08:19:40;;;;;;;30.10;22.97;;;;;;;21.15;98.24;98507.38;4984838;28;20310;-58
2022/08/27 08:22:07;;;;;;;32.93;22.77;;;;;;;21.25;98.14;98520.09;4984603;28;20256;-57
2022/08/27 08:24:36;;;;;;;33.93;22.63;;;;;;;21.15;93.52;98517.19;4984927;28;20220;-58
2022/08/27 08:27:03;;;;;;;31.17;22.67;;;;;;;21.17;97.25;98504.50;4984042;28;20589;-58
2022/08/27 08:29:29;;;;;;;33.37;23.83;;;;;;;21.24;96.68;98507.88;4984847;28;20238;-58
2022/08/27 08:31:56;;;;;;;30.17;22.47;;;;;;;21.43;96.10;98518.47;4984076;28;20247;-58
2022/08/27 08:34:23;;;;;;;29.40;21.77;;;;;;;21.49;92.68;98522.88;4984877;28;20232;-56
2022/08/27 08:36:50;;;;;;;35.07;24.10;;;;;;;21.53;89.87;98524.88;4977387;28;21076;-58
2022/08/27 08:39:18;;;;;;;29.30;22.27;;;;;;;21.58;90.61;98526.03;4984989;28;20887;-58
2022/08/27 08:41:51;;;;;;;32.33;22.73;;;;;;;21.49;88.64;98520.22;4984274;28;20238;-58
2022/08/27 08:44:29;;;;;;;31.53;21.20;;;;;;;21.56;86.96;98520.16;4985166;28;20234;-57
2022/08/27 08:47:02;;;;;;;29.17;21.57;;;;;;;21.56;89.89;98526.25;4983275;28;20598;-58
2022/08/27 08:49:38;;;;;;;30.60;23.20;;;;;;;21.23;89.33;98528.31;4984466;28;20236;-58
2022/08/27 08:52:18;;;;;;;31.63;23.00;;;;;;;21.38;86.11;98530.56;4983648;28;20657;-57
2022/08/27 08:54:45;;;;;;;35.47;24.40;;;;;;;21.05;89.74;98528.31;4982708;28;20239;-58
2022/08/27 08:57:22;;;;;;;31.20;22.93;;;;;;;21.12;90.20;98533.56;4984737;28;20239;-57
2022/08/27 08:59:56;;;;;;;32.73;23.83;;;;;;;21.14;87.49;98528.84;4983821;28;20243;-57
2022/08/27 09:02:23;;;;;;;31.33;22.93;;;;;;;21.20;89.31;98533.25;4982295;28;20352;-59
2022/08/27 09:04:50;;;;;;;29.90;21.27;;;;;;;21.28;91.54;98540.09;4981236;28;20237;-58
2022/08/27 09:07:25;;;;;;;39.20;24.63;;;;;;;21.22;90.53;98536.47;4984378;28;20232;-59
2022/08/27 09:09:55;;;;;;;34.77;24.17;;;;;;;21.19;88.81;98545.72;4983364;28;20259;-59
2022/08/27 09:12:28;;;;;;;35.93;24.40;;;;;;;20.93;89.12;98538.88;4982929;28;20220;-58
2022/08/27 09:15:00;;;;;;;34.53;23.10;;;;;;;21.21;88.08;98542.81;4983730;28;20243;-58
2022/08/27 09:17:28;;;;;;;34.93;23.33;;;;;;;20.95;87.63;98542.09;4982398;28;20235;-57
2022/08/27 09:19:55;;;;;;;34.23;22.63;;;;;;;21.17;89.58;98539.00;4983063;28;20232;-58
2022/08/27 09:22:30;;;;;;;36.60;24.23;;;;;;;21.06;88.00;98548.50;4982163;28;20230;-57
2022/08/27 09:25:06;;;;;;;35.87;24.60;;;;;;;21.06;88.44;98544.03;4981686;28;20296;-58
2022/08/27 09:27:40;;;;;;;32.37;23.80;;;;;;;21.27;89.26;98541.13;4983798;28;20588;-58
2022/08/27 09:30:10;;;;;;;39.53;24.63;;;;;;;21.21;89.46;98543.66;4984122;28;20231;-59
2022/08/27 09:32:37;;;;;;;33.37;22.87;;;;;;;21.32;88.73;98551.91;4981614;28;20254;-59
2022/08/27 09:35:07;;;;;;;38.90;24.97;;;;;;;21.06;88.72;98545.84;4983548;28;20353;-58
2022/08/27 09:37:42;;;;;;;30.97;23.27;;;;;;;20.97;89.53;98549.84;4982322;28;20239;-58
2022/08/27 09:40:16;;;;;;;37.67;24.80;;;;;;;20.60;91.20;98542.63;4983960;28;20250;-58
2022/08/27 09:42:47;;;;;;;37.90;25.63;;;;;;;20.50;94.25;98549.22;4979487;28;20327;-57
2022/08/27 09:45:17;;;;;;;37.17;25.97;;;;;;;20.34;94.30;98553.25;4982464;28;20263;-58
2022/08/27 09:47:47;;;;;;;40.50;26.63;;;;;;;20.27;95.20;98544.53;4980398;28;20704;-57
2022/08/27 09:50:17;;;;;;;37.43;25.40;;;;;;;20.40;93.79;98548.13;4983445;28;20219;-58
2022/08/27 09:52:54;;;;;;;37.37;25.20;;;;;;;20.52;92.62;98549.03;4981991;28;20228;-58
2022/08/27 09:55:30;;;;;;;34.40;25.77;;;;;;;20.60;92.51;98547.94;4982560;28;20234;-58
2022/08/27 09:57:59;;;;;;;38.47;25.57;;;;;;;20.69;94.08;98548.44;4982842;28;20250;-58
2022/08/27 10:00:35;;;;;;;31.87;23.57;;;;;;;20.89;96.09;98551.75;4981163;28;20236;-59
2022/08/27 10:03:03;;;;;;;35.03;25.87;;;;;;;20.71;94.50;98552.50;4981247;28;20232;-59
2022/08/27 10:05:32;;;;;;;29.23;21.30;;;;;;;20.55;94.31;98555.72;4980256;28;20310;-57
2022/08/27 10:08:02;;;;;;;22.13;18.17;;;;;;;20.56;92.46;98554.69;4982858;28;20232;-58
2022/08/27 10:10:43;;;;;;;21.17;15.60;;;;;;;20.75;91.89;98558.19;4982659;28;20239;-59
2022/08/27 10:13:16;;;;;;;17.17;14.63;;;;;;;20.73;89.75;98552.28;4996143;28;20223;-59
2022/08/27 10:16:00;;;;;;;16.20;13.70;;;;;;;20.65;91.67;98558.69;4981081;28;20223;-58
2022/08/27 10:18:37;;;;;;;14.73;13.20;;;;;;;21.08;89.00;98563.19;4982171;28;20717;-58
2022/08/27 10:21:15;;;;;;;13.40;11.67;;;;;;;21.30;85.67;98559.28;4983200;28;20228;-59
2022/08/27 10:23:49;;;;;;;13.30;11.13;;;;;;;21.49;85.71;98552.09;4982167;28;20671;-58
2022/08/27 10:26:24;;;;;;;13.23;10.93;;;;;;;21.91;82.27;98561.97;4983716;28;20228;-58
2022/08/27 10:29:08;;;;;;;13.37;10.50;;;;;;;22.06;83.52;98559.72;4983085;28;20231;-58
2022/08/27 10:31:41;;;;;;;12.30;10.53;;;;;;;22.72;79.58;98571.38;4979938;28;20271;-58
2022/08/27 10:34:22;;;;;;;9.97;8.70;;;;;;;23.07;77.67;98571.34;4982622;28;20609;-58
2022/08/27 10:37:00;;;;;;;11.73;10.17;;;;;;;22.38;80.02;98572.72;4982372;28;20242;-58
2022/08/27 10:39:44;;;;;;;12.60;9.37;;;;;;;22.48;77.86;98574.03;4982618;28;20623;-57
2022/08/27 10:42:20;;;;;;;10.30;9.20;;;;;;;22.25;78.82;98565.78;4982453;28;20237;-57
2022/08/27 10:44:58;;;;;;;11.93;10.10;;;;;;;21.41;82.86;98570.97;4980632;28;20239;-57
2022/08/27 10:47:44;;;;;;;11.23;10.03;;;;;;;20.60;88.10;98566.50;4981849;28;20899;-59
2022/08/27 10:50:28;;;;;;;11.70;10.50;;;;;;;20.77;87.66;98564.94;4985189;28;20235;-58
2022/08/27 10:53:00;;;;;;;10.00;8.97;;;;;;;20.85;87.88;98563.81;4984692;28;20234;-58
2022/08/27 10:55:32;;;;;;;11.60;8.70;;;;;;;20.25;91.30;98566.97;4984371;28;20228;-57
2022/08/27 10:58:14;;;;;;;11.00;9.07;;;;;;;20.37;91.53;98565.25;4986363;28;20238;-59
2022/08/27 11:00:50;;;;;;;10.23;8.03;;;;;;;20.47;90.70;98568.22;4984265;28;20651;-58
2022/08/27 11:03:24;;;;;;;8.77;7.57;;;;;;;20.52;92.17;98561.47;4986146;28;20241;-57
2022/08/27 11:05:53;;;;;;;7.97;7.17;;;;;;;20.70;89.38;98564.16;4999559;28;20234;-58
2022/08/27 11:08:23;;;;;;;7.00;6.30;;;;;;;20.66;90.53;98562.97;4985630;28;20226;-58
2022/08/27 11:10:55;;;;;;;6.80;6.10;;;;;;;20.60;90.33;98564.66;4985182;28;20241;-57
2022/08/27 11:13:46;;;;;;;6.53;5.10;;;;;;;20.60;93.08;98562.00;4984694;28;20227;-57
2022/08/27 11:16:18;;;;;;;3.93;3.63;;;;;;;20.86;89.39;98556.69;4984456;28;20224;-58
2022/08/27 11:18:50;;;;;;;3.47;3.17;;;;;;;20.87;90.34;98556.47;4985499;28;20228;-58
2022/08/27 11:21:24;;;;;;;4.50;3.33;;;;;;;20.99;89.36;98558.38;4986078;28;20227;-57
2022/08/27 11:23:55;;;;;;;3.23;2.93;;;;;;;21.18;89.38;98559.22;4983229;28;20665;-58
2022/08/27 11:26:22;;;;;;;2.73;2.53;;;;;;;21.18;86.49;98551.25;4986611;28;20226;-57
2022/08/27 11:28:53;;;;;;;2.27;2.13;;;;;;;21.34;86.19;98555.94;4985013;28;20680;-57
2022/08/27 11:31:30;;;;;;;2.83;2.53;;;;;;;21.45;86.92;98561.53;4984323;28;20231;-57
2022/08/27 11:34:04;;;;;;;2.43;2.23;;;;;;;21.75;87.86;98550.16;4971533;28;20774;-57